Time;durP1;ratioP1;P1;durP2;ratioP2;P2;SDS_P1;SDS_P2;PMS_P1;PMS_P2;Temp;Humidity;BMP_temperature;BMP_pressure;BME280_temperature;BME280_humidity;BME280_pressure;Samples;Min_cycle;Max_cycle;Signal;HPM_P1;HPM_P2
2023/06/14 00:00:44;;;;;;;8.73;6.35;;;22.10;84.30;;;;;;5075505;28;20036;-60
2023/06/14 00:03:11;;;;;;;10.13;6.63;;;22.00;84.30;;;;;;5076936;28;20080;-60
2023/06/14 00:05:42;;;;;;;8.35;6.35;;;22.00;84.40;;;;;;5075564;28;20043;-61
2023/06/14 00:08:12;;;;;;;10.68;6.10;;;21.90;84.50;;;;;;5075879;28;20040;-60
2023/06/14 00:10:40;;;;;;;8.00;5.47;;;21.90;84.60;;;;;;5077164;28;20963;-60
2023/06/14 00:13:07;;;;;;;8.20;5.40;;;21.90;84.70;;;;;;5077080;27;20049;-60
2023/06/14 00:15:33;;;;;;;9.98;5.60;;;21.80;84.80;;;;;;5075754;28;20044;-60
2023/06/14 00:18:00;;;;;;;9.77;6.10;;;21.80;85.00;;;;;;5072194;28;20048;-60
2023/06/14 00:20:30;;;;;;;7.45;6.28;;;21.70;85.00;;;;;;5075092;28;20041;-60
2023/06/14 00:22:56;;;;;;;9.23;6.43;;;21.80;85.20;;;;;;5076944;28;20044;-60
2023/06/14 00:25:26;;;;;;;9.82;6.15;;;21.70;85.20;;;;;;5076403;28;20067;-60
2023/06/14 00:27:53;;;;;;;7.72;5.70;;;21.70;85.90;;;;;;5076386;28;20048;-60
2023/06/14 00:30:19;;;;;;;6.57;5.50;;;21.70;85.40;;;;;;5075280;28;20087;-60
2023/06/14 00:32:45;;;;;;;7.28;5.70;;;21.60;85.50;;;;;;5075815;28;20049;-60
2023/06/14 00:35:11;;;;;;;9.57;6.25;;;21.60;85.60;;;;;;5074829;28;20554;-60
2023/06/14 00:37:37;;;;;;;8.18;6.10;;;21.60;85.70;;;;;;5076528;28;20072;-60
2023/06/14 00:40:04;;;;;;;8.00;5.85;;;21.50;85.70;;;;;;5075439;28;20036;-60
2023/06/14 00:42:30;;;;;;;9.30;6.25;;;21.50;85.80;;;;;;5091925;27;20087;-60
2023/06/14 00:44:56;;;;;;;7.35;5.30;;;21.40;85.90;;;;;;5074873;28;20037;-60
2023/06/14 00:47:23;;;;;;;9.20;5.93;;;21.40;86.00;;;;;;5076033;28;20079;-60
2023/06/14 00:49:50;;;;;;;8.93;5.93;;;21.30;86.10;;;;;;5074481;28;20479;-60
2023/06/14 00:52:17;;;;;;;8.43;5.93;;;21.30;86.30;;;;;;5076522;28;20558;-60
2023/06/14 00:54:43;;;;;;;7.25;5.28;;;21.30;86.50;;;;;;5074472;28;20111;-60
2023/06/14 00:57:13;;;;;;;9.10;5.57;;;21.20;86.50;;;;;;5076127;28;20587;-60
2023/06/14 00:59:47;;;;;;;9.52;5.82;;;21.20;86.80;;;;;;5075810;28;20053;-60
2023/06/14 01:02:14;;;;;;;7.55;5.82;;;21.20;87.00;;;;;;5075656;28;20131;-60
2023/06/14 01:04:45;;;;;;;7.90;5.95;;;21.20;87.20;;;;;;5075277;28;20571;-60
2023/06/14 01:07:22;;;;;;;8.43;6.00;;;21.10;87.20;;;;;;5076310;28;20044;-60
2023/06/14 01:10:16;;;;;;;9.07;6.25;;;21.10;87.30;;;;;;5075955;28;20535;-60
2023/06/14 01:13:05;;;;;;;8.02;6.05;;;21.10;87.50;;;;;;5076243;28;20253;-60
2023/06/14 01:15:32;;;;;;;10.05;6.07;;;21.10;94.90;;;;;;5074629;28;20099;-60
2023/06/14 01:18:03;;;;;;;9.25;6.82;;;20.60;95.00;;;;;;5075502;28;20071;-60
2023/06/14 01:20:31;;;;;;;12.80;7.40;;;21.10;95.50;;;;;;5073858;28;20048;-60
2023/06/14 01:22:56;;;;;;;8.50;6.63;;;21.10;95.70;;;;;;5075420;28;20052;-60
2023/06/14 01:25:23;;;;;;;8.35;6.07;;;21.00;96.10;;;;;;5089811;27;20412;-60
2023/06/14 01:27:51;;;;;;;7.55;5.93;;;20.90;88.10;;;;;;5074579;28;20143;-60
2023/06/14 01:30:18;;;;;;;8.18;5.97;;;20.90;88.20;;;;;;5072388;28;20491;-60
2023/06/14 01:32:45;;;;;;;7.10;5.57;;;20.90;88.30;;;;;;5073558;28;20040;-60
2023/06/14 01:35:11;;;;;;;9.95;6.07;;;20.80;88.40;;;;;;5072929;28;20046;-60
2023/06/14 01:37:38;;;;;;;8.25;5.80;;;20.80;88.60;;;;;;5073205;28;20048;-60
2023/06/14 01:40:06;;;;;;;8.23;6.28;;;20.80;88.70;;;;;;5073951;28;20048;-60
2023/06/14 01:42:37;;;;;;;10.57;6.38;;;20.70;89.00;;;;;;5073535;28;20052;-59
2023/06/14 01:45:05;;;;;;;7.95;6.32;;;20.70;89.10;;;;;;5075059;28;20036;-60
2023/06/14 01:47:32;;;;;;;9.80;6.45;;;20.60;89.20;;;;;;5075720;28;20045;-60
2023/06/14 01:49:58;;;;;;;8.32;5.97;;;20.60;89.40;;;;;;5072948;28;20530;-59
2023/06/14 01:52:24;;;;;;;8.13;6.47;;;20.60;89.60;;;;;;5075221;28;20044;-60
2023/06/14 01:54:52;;;;;;;8.93;6.90;;;20.60;89.70;;;;;;5074308;28;20052;-60
2023/06/14 01:57:18;;;;;;;11.25;6.93;;;20.50;89.80;;;;;;5074369;28;20127;-60
2023/06/14 01:59:48;;;;;;;9.98;6.32;;;20.60;90.00;;;;;;5073985;28;20041;-60
2023/06/14 02:02:14;;;;;;;7.97;6.47;;;20.60;99.90;;;;;;5073365;28;20048;-60
2023/06/14 02:04:40;;;;;;;9.73;7.13;;;20.60;98.80;;;;;;5091101;27;20070;-60
2023/06/14 02:07:07;;;;;;;10.27;6.97;;;20.60;96.20;;;;;;5074619;28;20044;-60
2023/06/14 02:09:32;;;;;;;8.88;6.43;;;20.60;96.40;;;;;;5074761;28;20040;-60
2023/06/14 02:11:58;;;;;;;9.43;7.03;;;20.60;96.40;;;;;;5069984;28;20098;-60
2023/06/14 02:14:24;;;;;;;10.02;6.82;;;20.50;96.50;;;;;;5073859;28;20040;-60
2023/06/14 02:16:49;;;;;;;11.20;7.47;;;20.50;96.60;;;;;;5070767;28;20047;-60
2023/06/14 02:19:20;;;;;;;8.57;6.90;;;20.60;96.50;;;;;;5072505;28;20240;-60
2023/06/14 02:21:46;;;;;;;11.95;6.95;;;20.50;96.10;;;;;;5073734;28;20883;-60
2023/06/14 02:24:13;;;;;;;12.05;6.68;;;20.40;90.50;;;;;;5072773;28;20181;-60
2023/06/14 02:26:39;;;;;;;9.82;6.95;;;20.40;90.60;;;;;;5072436;28;20037;-60
2023/06/14 02:29:05;;;;;;;9.68;7.55;;;20.30;90.60;;;;;;5071287;28;20077;-60
2023/06/14 02:31:32;;;;;;;11.60;7.38;;;20.30;90.70;;;;;;5072255;28;20503;-60
2023/06/14 02:33:58;;;;;;;11.05;7.63;;;20.30;90.80;;;;;;5071767;28;20673;-60
2023/06/14 02:36:24;;;;;;;11.15;7.07;;;20.20;90.80;;;;;;5072850;28;20291;-60
2023/06/14 02:38:50;;;;;;;16.00;8.02;;;20.20;90.90;;;;;;5074274;28;20120;-60
2023/06/14 02:41:16;;;;;;;9.18;6.60;;;20.20;91.00;;;;;;5072145;28;20040;-60
2023/06/14 02:43:42;;;;;;;9.52;6.82;;;20.10;91.00;;;;;;5073609;28;20098;-60
2023/06/14 02:46:08;;;;;;;10.40;7.18;;;20.10;91.10;;;;;;5070621;28;20032;-60
2023/06/14 02:48:34;;;;;;;15.07;8.68;;;20.10;91.20;;;;;;5074354;28;20427;-60
2023/06/14 02:50:59;;;;;;;12.90;8.02;;;20.10;91.20;;;;;;5071317;28;20064;-60
2023/06/14 02:53:25;;;;;;;13.00;8.00;;;20.10;91.30;;;;;;5087066;27;20044;-60
2023/06/14 02:55:51;;;;;;;15.10;7.15;;;20.10;91.30;;;;;;5071032;28;20037;-59
2023/06/14 02:58:18;;;;;;;12.15;7.30;;;20.10;91.40;;;;;;5072162;28;20140;-60
2023/06/14 03:00:43;;;;;;;10.52;8.00;;;20.00;91.50;;;;;;5072072;28;20461;-61
2023/06/14 03:03:13;;;;;;;11.90;8.30;;;20.10;91.60;;;;;;5073738;28;20416;-60
2023/06/14 03:05:45;;;;;;;10.23;7.00;;;20.00;91.70;;;;;;5073748;28;20134;-60
2023/06/14 03:08:16;;;;;;;12.57;8.13;;;20.00;91.80;;;;;;5072246;28;20044;-59
2023/06/14 03:10:43;;;;;;;14.23;7.65;;;20.00;92.00;;;;;;5070714;28;20122;-60
2023/06/14 03:13:10;;;;;;;10.32;8.27;;;20.00;92.10;;;;;;5071125;28;20571;-60
2023/06/14 03:15:36;;;;;;;11.18;7.93;;;20.00;92.30;;;;;;5070084;28;20041;-60
2023/06/14 03:18:03;;;;;;;13.63;7.93;;;20.00;92.50;;;;;;5075191;28;20044;-59
2023/06/14 03:20:32;;;;;;;9.35;6.78;;;19.90;92.80;;;;;;5074036;28;20769;-60
2023/06/14 03:23:02;;;;;;;10.23;7.53;;;19.90;93.00;;;;;;5075080;27;20045;-59
2023/06/14 03:25:29;;;;;;;13.65;7.63;;;20.00;93.30;;;;;;5074666;28;20044;-60
2023/06/14 03:27:58;;;;;;;10.35;7.30;;;19.90;93.60;;;;;;5067331;28;20041;-60
2023/06/14 03:30:23;;;;;;;8.95;6.68;;;19.90;94.90;;;;;;5090857;27;20075;-60
2023/06/14 03:32:51;;;;;;;11.15;7.90;;;19.80;94.40;;;;;;5092379;27;20131;-60
2023/06/14 03:35:17;;;;;;;10.45;7.55;;;19.80;94.70;;;;;;5076668;28;20608;-60
2023/06/14 03:37:44;;;;;;;12.63;8.18;;;19.80;94.80;;;;;;5076390;28;20118;-60
2023/06/14 03:40:11;;;;;;;12.38;7.22;;;19.80;95.20;;;;;;5089170;27;20045;-60
2023/06/14 03:42:37;;;;;;;9.95;7.15;;;19.80;96.00;;;;;;5076446;28;20549;-60
2023/06/14 03:45:03;;;;;;;10.65;7.20;;;19.70;97.20;;;;;;5074220;28;20125;-59
2023/06/14 03:47:28;;;;;;;11.65;7.50;;;19.50;91.90;;;;;;5074194;28;20123;-60
2023/06/14 03:49:54;;;;;;;11.02;7.93;;;19.60;92.10;;;;;;5075342;28;20036;-60
2023/06/14 03:52:21;;;;;;;13.20;8.98;;;19.50;92.20;;;;;;5092338;27;20047;-60
2023/06/14 03:54:47;;;;;;;14.80;8.68;;;19.50;92.20;;;;;;5076180;28;20041;-60
2023/06/14 03:57:13;;;;;;;11.13;6.78;;;19.50;92.20;;;;;;5076179;28;20100;-60
2023/06/14 03:59:39;;;;;;;12.05;7.85;;;19.50;92.30;;;;;;5076609;28;20044;-60
2023/06/14 04:02:05;;;;;;;14.43;8.02;;;19.50;92.30;;;;;;5076412;28;20467;-60
2023/06/14 04:04:31;;;;;;;12.20;8.02;;;19.50;92.30;;;;;;5076800;28;20043;-60
2023/06/14 04:06:58;;;;;;;10.32;7.60;;;19.50;92.40;;;;;;5076530;28;20098;-60
2023/06/14 04:09:24;;;;;;;13.40;7.78;;;19.50;92.40;;;;;;5074760;28;20571;-60
2023/06/14 04:11:53;;;;;;;9.88;6.93;;;19.40;92.40;;;;;;5075123;28;20048;-60
2023/06/14 04:14:19;;;;;;;10.18;7.28;;;19.50;92.50;;;;;;5076594;28;20047;-60
2023/06/14 04:16:47;;;;;;;9.48;7.25;;;19.40;92.50;;;;;;5077023;28;20036;-60
2023/06/14 04:19:12;;;;;;;12.30;7.22;;;19.40;92.60;;;;;;5077434;28;20111;-59
2023/06/14 04:21:38;;;;;;;15.25;7.57;;;19.40;92.60;;;;;;5076552;28;20052;-60
2023/06/14 04:24:04;;;;;;;10.57;7.88;;;19.40;92.60;;;;;;5076695;28;20139;-59
2023/06/14 04:26:33;;;;;;;10.82;7.75;;;19.40;92.70;;;;;;5077426;28;20044;-60
2023/06/14 04:29:02;;;;;;;12.93;8.35;;;19.40;92.70;;;;;;5074984;28;20058;-60
2023/06/14 04:31:37;;;;;;;9.68;7.43;;;19.30;92.70;;;;;;5090243;27;20041;-60
2023/06/14 04:34:05;;;;;;;15.82;8.50;;;19.40;92.70;;;;;;5077444;28;20041;-60
2023/06/14 04:36:36;;;;;;;11.85;8.45;;;19.30;92.70;;;;;;5074874;28;20071;-60
2023/06/14 04:39:03;;;;;;;12.80;8.80;;;19.30;92.80;;;;;;5077094;28;20212;-60
2023/06/14 04:41:30;;;;;;;12.27;8.60;;;19.30;92.80;;;;;;5072896;28;20279;-60
2023/06/14 04:44:01;;;;;;;13.00;8.98;;;19.30;92.80;;;;;;5076511;28;20041;-60
2023/06/14 04:46:31;;;;;;;10.32;7.75;;;19.30;92.90;;;;;;5072977;28;20120;-60
2023/06/14 04:49:00;;;;;;;14.10;8.30;;;19.30;92.90;;;;;;5073141;28;20119;-59
2023/06/14 04:51:29;;;;;;;11.55;7.82;;;19.30;92.90;;;;;;5076212;27;20044;-60
2023/06/14 04:53:58;;;;;;;12.07;8.13;;;19.30;92.90;;;;;;5076358;28;20064;-59
2023/06/14 04:56:25;;;;;;;18.10;7.95;;;19.30;93.00;;;;;;5072824;28;20043;-60
2023/06/14 04:58:52;;;;;;;11.13;8.57;;;19.20;93.00;;;;;;5076181;28;20238;-60
2023/06/14 05:01:18;;;;;;;12.20;9.25;;;19.20;92.80;;;;;;5075275;28;20093;-60
2023/06/14 05:03:45;;;;;;;17.05;8.85;;;19.30;93.10;;;;;;5076395;27;20102;-60
2023/06/14 05:06:11;;;;;;;9.82;7.68;;;19.30;93.10;;;;;;5077070;28;20465;-60
2023/06/14 05:08:37;;;;;;;14.98;8.65;;;19.20;93.10;;;;;;5074682;28;20531;-59
2023/06/14 05:11:03;;;;;;;20.63;8.27;;;19.20;93.10;;;;;;5070979;28;20060;-59
2023/06/14 05:13:29;;;;;;;14.07;8.65;;;19.20;93.20;;;;;;5067955;27;20068;-59
2023/06/14 05:15:54;;;;;;;12.38;9.27;;;19.10;93.20;;;;;;5071505;28;20055;-59
2023/06/14 05:18:20;;;;;;;13.02;7.47;;;19.10;93.30;;;;;;5070502;28;20068;-59
2023/06/14 05:20:46;;;;;;;16.42;8.52;;;19.20;93.40;;;;;;5075252;28;20076;-59
2023/06/14 05:23:14;;;;;;;13.38;7.10;;;19.10;93.70;;;;;;5075937;28;20103;-58
2023/06/14 05:25:45;;;;;;;12.65;7.72;;;19.10;93.40;;;;;;5091293;27;20051;-58
2023/06/14 05:28:11;;;;;;;11.68;7.97;;;19.20;93.60;;;;;;5075043;28;20044;-58
2023/06/14 05:30:40;;;;;;;12.88;7.68;;;19.20;93.50;;;;;;5075829;28;20052;-58
2023/06/14 05:33:06;;;;;;;13.25;8.50;;;19.30;93.50;;;;;;5075186;28;20044;-58
2023/06/14 05:35:31;;;;;;;12.07;7.93;;;19.20;93.50;;;;;;5070705;28;20036;-58
2023/06/14 05:37:57;;;;;;;14.68;7.95;;;19.20;93.50;;;;;;5076748;28;20389;-58
2023/06/14 05:40:23;;;;;;;16.20;8.35;;;19.30;93.60;;;;;;5074719;28;20167;-59
2023/06/14 05:42:48;;;;;;;10.93;7.53;;;19.30;93.60;;;;;;5075526;28;20043;-59
2023/06/14 05:45:15;;;;;;;14.02;7.70;;;19.30;93.60;;;;;;5072385;28;20120;-59
2023/06/14 05:47:41;;;;;;;24.58;9.05;;;19.40;93.70;;;;;;5075824;28;20150;-59
2023/06/14 05:50:07;;;;;;;17.20;8.25;;;19.40;93.70;;;;;;5075709;28;20102;-59
2023/06/14 05:52:35;;;;;;;10.77;7.97;;;19.40;93.70;;;;;;5072659;28;20803;-58
2023/06/14 05:55:01;;;;;;;12.30;7.82;;;19.40;93.70;;;;;;5070681;28;20044;-59
2023/06/14 05:57:27;;;;;;;11.23;7.03;;;19.40;93.60;;;;;;5073022;28;20049;-59
2023/06/14 05:59:53;;;;;;;13.60;8.13;;;19.40;93.70;;;;;;5074011;28;20452;-58
2023/06/14 06:02:18;;;;;;;14.95;7.15;;;19.40;93.60;;;;;;5074265;28;20622;-59
2023/06/14 06:04:44;;;;;;;21.17;7.95;;;19.50;93.60;;;;;;5075653;28;20531;-58
2023/06/14 06:07:10;;;;;;;9.75;6.88;;;19.50;93.50;;;;;;5075700;28;20051;-59
2023/06/14 06:09:35;;;;;;;9.73;6.57;;;19.50;93.50;;;;;;5073876;28;20047;-58
2023/06/14 06:12:01;;;;;;;11.82;6.90;;;19.50;93.50;;;;;;5075532;28;20091;-59
2023/06/14 06:14:27;;;;;;;11.93;6.22;;;19.60;93.50;;;;;;5074994;28;20114;-59
2023/06/14 06:16:54;;;;;;;8.88;6.45;;;19.60;93.40;;;;;;5075397;28;20060;-58
2023/06/14 06:19:20;;;;;;;10.27;7.05;;;19.50;93.30;;;;;;5073529;28;20676;-58
2023/06/14 06:21:46;;;;;;;8.18;6.00;;;19.60;93.20;;;;;;5075719;28;20848;-59
2023/06/14 06:24:11;;;;;;;16.85;7.30;;;19.60;93.10;;;;;;5075022;28;20068;-58
2023/06/14 06:26:37;;;;;;;17.15;7.68;;;19.70;93.20;;;;;;5074168;27;21437;-58
2023/06/14 06:29:04;;;;;;;10.18;6.68;;;19.70;93.10;;;;;;5074674;28;20548;-59
2023/06/14 06:31:30;;;;;;;8.43;5.97;;;19.70;93.00;;;;;;5089463;27;20040;-58
2023/06/14 06:33:55;;;;;;;8.40;6.38;;;19.70;93.00;;;;;;5075050;28;20048;-58
2023/06/14 06:36:21;;;;;;;16.02;6.47;;;19.80;93.00;;;;;;5072330;28;20056;-59
2023/06/14 06:38:48;;;;;;;11.43;6.35;;;19.80;92.90;;;;;;5068278;28;20041;-59
2023/06/14 06:41:13;;;;;;;9.27;5.82;;;19.80;93.00;;;;;;5069663;28;20040;-58
2023/06/14 06:43:39;;;;;;;13.57;7.32;;;19.90;92.90;;;;;;5071948;28;20432;-60
2023/06/14 06:46:05;;;;;;;10.82;6.00;;;19.90;92.90;;;;;;5068999;28;20488;-60
2023/06/14 06:48:31;;;;;;;14.23;7.10;;;19.90;92.90;;;;;;5073106;28;20135;-60
2023/06/14 06:50:57;;;;;;;9.13;6.00;;;20.00;93.10;;;;;;5073495;28;20512;-60
2023/06/14 06:53:22;;;;;;;8.80;6.20;;;20.00;92.80;;;;;;5076014;28;20680;-60
2023/06/14 06:55:48;;;;;;;10.73;6.30;;;20.00;92.70;;;;;;5076608;28;20080;-60
2023/06/14 06:58:15;;;;;;;10.52;6.47;;;20.00;92.70;;;;;;5075372;28;20164;-60
2023/06/14 07:00:41;;;;;;;13.93;6.70;;;20.10;92.70;;;;;;5073674;28;20398;-60
2023/06/14 07:03:06;;;;;;;12.20;6.78;;;20.10;92.70;;;;;;5076205;28;20044;-60
2023/06/14 07:05:32;;;;;;;10.57;6.28;;;20.10;92.70;;;;;;5074612;28;20555;-60
2023/06/14 07:07:58;;;;;;;11.73;7.03;;;20.20;92.70;;;;;;5072317;28;20040;-60
2023/06/14 07:10:27;;;;;;;11.20;6.55;;;20.20;92.70;;;;;;5090586;27;20032;-60
2023/06/14 07:12:52;;;;;;;10.32;6.25;;;20.20;92.60;;;;;;5075929;28;20098;-60
2023/06/14 07:15:18;;;;;;;11.45;6.20;;;20.30;92.60;;;;;;5075217;28;20052;-60
2023/06/14 07:17:44;;;;;;;9.48;5.95;;;20.30;92.50;;;;;;5076231;28;20550;-60
2023/06/14 07:20:13;;;;;;;13.48;6.78;;;20.30;92.40;;;;;;5092160;27;20044;-60
2023/06/14 07:22:43;;;;;;;10.23;5.93;;;20.40;92.40;;;;;;5076602;28;20045;-60
2023/06/14 07:25:12;;;;;;;8.07;6.00;;;20.40;92.40;;;;;;5076314;28;20520;-60
2023/06/14 07:27:38;;;;;;;11.18;6.15;;;20.40;92.30;;;;;;5075941;28;20609;-60
2023/06/14 07:30:04;;;;;;;13.38;6.70;;;20.50;92.30;;;;;;5076533;28;20086;-60
2023/06/14 07:32:30;;;;;;;12.23;5.88;;;20.50;92.20;;;;;;5076050;27;20049;-60
2023/06/14 07:34:56;;;;;;;10.35;6.93;;;20.50;92.10;;;;;;5075317;28;20126;-60
2023/06/14 07:37:21;;;;;;;10.10;6.50;;;20.60;92.00;;;;;;5075292;28;20048;-60
2023/06/14 07:39:47;;;;;;;9.30;5.63;;;20.60;92.00;;;;;;5075712;28;20444;-60
2023/06/14 07:42:13;;;;;;;7.50;6.00;;;20.70;92.00;;;;;;5076757;28;20049;-60
2023/06/14 07:44:38;;;;;;;9.40;6.32;;;20.70;91.80;;;;;;5075398;28;20040;-61
2023/06/14 07:47:04;;;;;;;8.32;5.28;;;20.70;91.60;;;;;;5075622;28;20580;-60
2023/06/14 07:49:30;;;;;;;9.48;5.80;;;20.70;91.50;;;;;;5076578;28;20054;-60
2023/06/14 07:51:56;;;;;;;11.07;5.53;;;20.80;91.40;;;;;;5075500;28;20068;-60
2023/06/14 07:54:26;;;;;;;12.63;6.03;;;20.60;91.20;;;;;;5074421;28;20049;-60
2023/06/14 07:56:52;;;;;;;9.80;6.10;;;20.80;91.10;;;;;;5075820;28;20052;-61
2023/06/14 07:59:18;;;;;;;7.63;5.50;;;20.80;90.90;;;;;;5090050;27;20520;-60
2023/06/14 08:01:47;;;;;;;12.75;6.47;;;20.90;90.60;;;;;;5072858;28;20045;-60
2023/06/14 08:04:15;;;;;;;10.70;5.53;;;20.90;90.40;;;;;;5079582;28;20048;-61
2023/06/14 08:06:43;;;;;;;8.60;5.90;;;21.00;90.30;;;;;;5079748;28;20040;-60
2023/06/14 08:09:10;;;;;;;10.20;7.18;;;21.00;90.20;;;;;;5079520;28;20067;-61
2023/06/14 08:11:36;;;;;;;14.90;6.30;;;21.00;90.10;;;;;;5078600;28;21211;-60
2023/06/14 08:14:02;;;;;;;8.07;5.50;;;21.00;90.00;;;;;;5078991;28;20128;-61
2023/06/14 08:16:27;;;;;;;6.22;4.80;;;21.10;89.80;;;;;;5077622;28;20598;-60
2023/06/14 08:18:53;;;;;;;12.55;6.25;;;21.10;89.20;;;;;;5079498;28;20044;-60
2023/06/14 08:21:19;;;;;;;8.35;5.03;;;21.10;88.80;;;;;;5079392;28;20079;-61
2023/06/14 08:23:45;;;;;;;5.75;4.70;;;21.20;88.90;;;;;;5078398;28;20099;-61
2023/06/14 08:26:11;;;;;;;9.63;5.85;;;21.20;88.70;;;;;;5076887;28;20515;-61
2023/06/14 08:28:36;;;;;;;10.98;5.65;;;21.20;88.20;;;;;;5078347;28;20052;-61
2023/06/14 08:31:02;;;;;;;8.52;5.28;;;21.20;87.80;;;;;;5079377;28;20457;-61
2023/06/14 08:33:28;;;;;;;11.20;5.22;;;21.20;87.30;;;;;;5079408;28;20138;-61
2023/06/14 08:35:54;;;;;;;8.15;4.85;;;21.30;87.10;;;;;;5078838;28;20087;-61
2023/06/14 08:38:19;;;;;;;20.85;6.07;;;21.30;86.80;;;;;;5079567;28;20049;-60
2023/06/14 08:40:50;;;;;;;5.95;4.88;;;21.40;86.20;;;;;;5078105;28;20131;-60
2023/06/14 08:43:16;;;;;;;8.65;4.15;;;21.40;85.70;;;;;;5079117;28;20045;-60
2023/06/14 08:45:41;;;;;;;7.75;5.35;;;21.40;85.10;;;;;;5077546;28;20033;-60
2023/06/14 08:48:08;;;;;;;5.75;3.85;;;21.40;84.20;;;;;;5078849;28;20044;-60
2023/06/14 08:50:39;;;;;;;5.53;4.35;;;21.50;83.30;;;;;;5079677;28;20049;-60
2023/06/14 08:53:10;;;;;;;6.23;3.83;;;21.50;82.60;;;;;;5078969;28;20048;-61
2023/06/14 08:55:39;;;;;;;6.60;4.00;;;21.60;82.10;;;;;;5078819;28;20044;-60
2023/06/14 08:58:05;;;;;;;6.55;3.58;;;21.60;81.70;;;;;;5077359;28;20142;-60
2023/06/14 09:00:32;;;;;;;7.35;4.65;;;21.70;81.20;;;;;;5078698;28;20044;-60
2023/06/14 09:02:58;;;;;;;5.93;4.07;;;21.70;80.80;;;;;;5077000;28;20040;-60
2023/06/14 09:05:26;;;;;;;10.18;4.93;;;21.70;81.10;;;;;;5078636;28;20044;-60
2023/06/14 09:07:52;;;;;;;6.07;4.22;;;21.70;80.10;;;;;;5078568;28;20040;-60
2023/06/14 09:10:18;;;;;;;6.18;4.50;;;21.80;79.60;;;;;;5078581;28;20037;-60
2023/06/14 09:12:44;;;;;;;6.43;4.82;;;21.90;79.40;;;;;;5077869;28;20575;-60
2023/06/14 09:15:10;;;;;;;6.50;4.63;;;21.90;79.10;;;;;;5068936;28;20044;-60
2023/06/14 09:17:36;;;;;;;11.10;4.45;;;22.00;79.10;;;;;;5078583;28;20043;-60
2023/06/14 09:20:13;;;;;;;7.10;4.75;;;22.00;78.60;;;;;;5077086;28;20052;-61
2023/06/14 09:22:39;;;;;;;5.97;4.05;;;22.00;78.40;;;;;;5076349;28;20060;-60
2023/06/14 09:25:06;;;;;;;6.90;4.13;;;22.10;78.70;;;;;;5078899;28;20052;-60
2023/06/14 09:27:32;;;;;;;7.85;4.90;;;22.10;78.50;;;;;;5077314;28;20539;-60
2023/06/14 09:29:58;;;;;;;5.45;3.95;;;22.10;78.30;;;;;;5077587;28;20043;-61
2023/06/14 09:32:25;;;;;;;9.13;4.97;;;22.10;78.20;;;;;;5077728;28;20040;-60
2023/06/14 09:34:51;;;;;;;6.25;4.30;;;22.10;78.00;;;;;;5077297;28;20036;-60
2023/06/14 09:37:32;;;;;;;6.07;4.70;;;22.10;77.60;;;;;;5077235;28;20249;-60
2023/06/14 09:39:58;;;;;;;5.72;3.67;;;22.20;76.90;;;;;;5078527;28;20048;-60
2023/06/14 09:42:28;;;;;;;7.47;4.00;;;22.20;77.00;;;;;;5077465;28;20053;-60
2023/06/14 09:44:56;;;;;;;7.07;4.68;;;22.30;76.30;;;;;;5075834;28;21190;-60
2023/06/14 09:47:23;;;;;;;8.40;4.68;;;22.30;76.00;;;;;;5075732;28;20041;-60
2023/06/14 09:49:54;;;;;;;8.60;4.80;;;22.40;75.60;;;;;;5092435;27;20583;-60
2023/06/14 09:52:21;;;;;;;9.00;4.82;;;22.40;75.70;;;;;;5076713;28;20048;-60
2023/06/14 09:54:48;;;;;;;9.98;4.35;;;22.40;75.90;;;;;;5076545;28;20188;-60
2023/06/14 09:57:16;;;;;;;8.15;4.15;;;22.50;75.90;;;;;;5077200;28;20099;-60
2023/06/14 09:59:43;;;;;;;8.00;4.35;;;22.50;75.10;;;;;;5076046;28;20880;-60
2023/06/14 10:02:22;;;;;;;7.88;4.00;;;22.60;74.40;;;;;;5077536;28;20597;-60
2023/06/14 10:04:57;;;;;;;6.15;3.97;;;22.60;73.60;;;;;;5076853;28;20040;-60
2023/06/14 10:07:25;;;;;;;7.90;4.30;;;22.70;72.90;;;;;;5077795;28;20044;-60
2023/06/14 10:09:53;;;;;;;6.70;4.50;;;22.70;72.30;;;;;;5077174;28;20040;-60
2023/06/14 10:12:22;;;;;;;10.68;4.78;;;22.80;72.20;;;;;;5076816;28;20047;-61
2023/06/14 10:14:55;;;;;;;5.72;4.13;;;22.80;72.20;;;;;;5076380;27;20131;-60
2023/06/14 10:17:27;;;;;;;5.97;3.72;;;22.90;72.00;;;;;;5076898;28;20102;-60
2023/06/14 10:20:06;;;;;;;6.22;4.05;;;22.80;71.90;;;;;;5077025;28;20045;-60
2023/06/14 10:22:49;;;;;;;6.65;4.43;;;22.90;71.90;;;;;;5076175;28;21220;-60
2023/06/14 10:25:29;;;;;;;7.88;3.83;;;22.90;72.20;;;;;;5077745;28;20127;-61
2023/06/14 10:28:16;;;;;;;6.57;4.22;;;22.90;72.30;;;;;;5075450;28;20772;-60
2023/06/14 10:31:06;;;;;;;7.30;4.82;;;23.00;72.40;;;;;;5076620;28;20044;-60
2023/06/14 10:33:33;;;;;;;5.70;3.80;;;22.90;72.50;;;;;;5077201;28;20056;-60
2023/06/14 10:36:24;;;;;;;7.78;4.47;;;23.00;72.80;;;;;;5076522;28;20032;-60
2023/06/14 10:39:15;;;;;;;10.07;4.85;;;23.00;72.60;;;;;;5077072;28;20075;-60
2023/06/14 10:41:41;;;;;;;6.10;3.92;;;23.20;72.40;;;;;;5077751;28;20636;-60
2023/06/14 10:44:13;;;;;;;5.65;4.13;;;23.20;72.30;;;;;;5075761;28;20574;-61
2023/06/14 10:46:40;;;;;;;9.40;4.22;;;23.20;72.10;;;;;;5077569;28;20045;-60
2023/06/14 10:49:06;;;;;;;8.73;4.28;;;23.30;71.30;;;;;;5077540;28;20048;-60
2023/06/14 10:51:45;;;;;;;9.55;5.13;;;23.30;71.30;;;;;;5077412;28;20145;-61
2023/06/14 10:54:15;;;;;;;12.10;5.03;;;23.30;71.50;;;;;;5076301;28;20107;-60
2023/06/14 10:56:51;;;;;;;8.38;4.25;;;23.30;71.80;;;;;;5074283;28;20547;-60
2023/06/14 10:59:19;;;;;;;6.45;3.85;;;23.30;71.70;;;;;;5074980;28;20052;-60
2023/06/14 11:02:20;;;;;;;9.43;4.10;;;23.40;71.70;;;;;;5074554;28;20651;-60
2023/06/14 11:04:51;;;;;;;5.85;4.05;;;23.40;71.20;;;;;;5075686;28;20087;-60
2023/06/14 11:07:32;;;;;;;;;;;23.50;71.20;;;;;;5076446;28;20548;-60
2023/06/14 11:10:03;;;;;;;8.10;4.20;;;23.50;71.40;;;;;;5076596;28;19927;-60
2023/06/14 11:12:33;;;;;;;6.57;4.43;;;23.50;71.90;;;;;;5076292;28;20127;-60
2023/06/14 11:14:59;;;;;;;8.77;4.35;;;23.50;71.70;;;;;;5090686;27;20083;-60
2023/06/14 11:17:25;;;;;;;6.05;4.68;;;23.60;71.20;;;;;;5076172;28;20049;-60
2023/06/14 11:20:11;;;;;;;6.32;3.63;;;23.70;70.30;;;;;;5076122;28;20048;-60
2023/06/14 11:22:44;;;;;;;8.48;4.60;;;23.70;69.80;;;;;;5073432;28;20049;-61
2023/06/14 11:25:12;;;;;;;10.10;4.78;;;23.70;69.70;;;;;;5090718;27;20143;-60
2023/06/14 11:27:38;;;;;;;6.85;4.10;;;23.80;69.40;;;;;;5073987;28;20044;-60
2023/06/14 11:30:07;;;;;;;9.05;4.10;;;23.80;69.10;;;;;;5075831;28;20040;-60
2023/06/14 11:32:33;;;;;;;7.07;4.38;;;23.80;68.80;;;;;;5090010;27;20036;-60
2023/06/14 11:34:59;;;;;;;4.72;3.45;;;24.00;68.70;;;;;;5074602;28;20771;-60
2023/06/14 11:37:30;;;;;;;8.00;4.00;;;23.90;68.50;;;;;;5074835;28;20049;-60
2023/06/14 11:40:00;;;;;;;5.32;3.70;;;24.00;68.40;;;;;;5095364;27;20061;-60
2023/06/14 11:42:29;;;;;;;8.75;4.05;;;24.10;67.90;;;;;;5078274;28;20048;-60
2023/06/14 11:44:55;;;;;;;4.85;3.83;;;24.10;67.70;;;;;;5071426;28;20924;-61
2023/06/14 11:47:22;;;;;;;10.60;3.95;;;24.10;67.60;;;;;;5078376;28;20480;-60
2023/06/14 11:49:48;;;;;;;6.55;4.30;;;24.00;67.70;;;;;;5079268;28;20037;-61
2023/06/14 11:52:14;;;;;;;7.93;4.55;;;24.00;68.00;;;;;;5079668;28;20052;-60
2023/06/14 11:54:40;;;;;;;7.78;5.10;;;24.00;68.40;;;;;;5078912;28;20051;-60
2023/06/14 11:57:07;;;;;;;6.90;4.68;;;24.10;68.40;;;;;;5077519;28;20037;-60
2023/06/14 11:59:41;;;;;;;6.40;3.95;;;24.20;68.40;;;;;;5078809;28;20436;-60
2023/06/14 12:02:08;;;;;;;7.82;3.67;;;24.20;67.70;;;;;;5077180;28;20065;-60
2023/06/14 12:04:33;;;;;;;6.55;4.07;;;24.30;67.00;;;;;;5079164;28;20162;-60
2023/06/14 12:07:11;;;;;;;7.80;4.18;;;24.30;67.00;;;;;;5078828;28;20638;-60
2023/06/14 12:09:36;;;;;;;5.07;4.03;;;24.40;67.10;;;;;;5079187;28;20033;-60
2023/06/14 12:12:03;;;;;;;6.00;3.75;;;24.40;67.20;;;;;;5079249;28;20069;-61
2023/06/14 12:14:31;;;;;;;8.50;4.18;;;24.40;67.30;;;;;;5093945;27;20242;-61
2023/06/14 12:17:06;;;;;;;10.07;4.18;;;24.50;67.50;;;;;;5079074;28;20075;-60
2023/06/14 12:19:32;;;;;;;4.97;4.05;;;24.50;67.70;;;;;;5079229;28;20052;-60
2023/06/14 12:22:04;;;;;;;9.32;4.15;;;24.50;67.90;;;;;;5078426;28;20033;-59
2023/06/14 12:24:32;;;;;;;7.68;4.93;;;24.50;67.90;;;;;;5079692;28;20088;-60
2023/06/14 12:27:04;;;;;;;4.90;4.35;;;24.50;67.60;;;;;;5078628;28;20123;-61
2023/06/14 12:29:30;;;;;;;8.88;4.72;;;24.60;67.40;;;;;;5078499;28;20047;-60
2023/06/14 12:31:57;;;;;;;6.50;3.92;;;24.70;67.70;;;;;;5080489;28;20040;-60
2023/06/14 12:34:28;;;;;;;8.93;4.13;;;24.70;68.00;;;;;;5079970;28;20098;-60
2023/06/14 12:36:54;;;;;;;6.13;3.92;;;24.80;67.60;;;;;;5079432;28;20045;-60
2023/06/14 12:39:21;;;;;;;8.88;4.20;;;24.70;66.70;;;;;;5077855;28;20047;-60
2023/06/14 12:41:48;;;;;;;8.00;4.43;;;24.70;66.50;;;;;;5079925;28;20125;-60
2023/06/14 12:44:15;;;;;;;8.38;4.82;;;24.70;66.50;;;;;;5077137;28;20059;-60
2023/06/14 12:46:42;;;;;;;9.40;5.40;;;24.80;66.90;;;;;;5078843;28;20452;-60